createdAt,value
2023-08-01T00:02:35.806Z,18.90
2023-08-01T00:05:22.305Z,18.84
2023-08-01T00:08:08.867Z,18.82
2023-08-01T00:10:54.953Z,18.80
2023-08-01T00:13:41.973Z,18.79
2023-08-01T00:16:28.714Z,18.77
2023-08-01T00:19:15.362Z,18.72
2023-08-01T00:22:01.983Z,18.66
2023-08-01T00:24:48.744Z,18.60
2023-08-01T00:27:40.435Z,18.56
2023-08-01T00:30:27.091Z,18.53
2023-08-01T00:33:14.282Z,18.51
2023-08-01T00:36:01.168Z,18.50
2023-08-01T00:38:48.409Z,18.50
2023-08-01T00:41:34.886Z,18.49
2023-08-01T00:44:21.290Z,18.50
2023-08-01T00:47:08.323Z,18.52
2023-08-01T00:49:55.211Z,18.46
2023-08-01T00:52:42.366Z,18.53
2023-08-01T00:55:31.664Z,18.52
2023-08-01T00:58:18.282Z,18.48
2023-08-01T01:01:05.167Z,18.50
2023-08-01T01:03:52.332Z,18.50
2023-08-01T01:06:44.718Z,18.50
2023-08-01T01:09:34.656Z,18.48
2023-08-01T01:12:21.385Z,18.47
2023-08-01T01:15:08.780Z,18.46
2023-08-01T01:17:55.452Z,18.45
2023-08-01T01:20:42.114Z,18.44
2023-08-01T01:23:29.775Z,18.43
2023-08-01T01:26:21.568Z,18.42
2023-08-01T01:29:11.786Z,18.40
2023-08-01T01:32:00.261Z,18.37
2023-08-01T01:34:47.325Z,18.36
2023-08-01T01:37:33.780Z,18.36
2023-08-01T01:40:20.365Z,18.37
2023-08-01T01:43:06.735Z,18.40
2023-08-01T01:45:53.112Z,18.40
2023-08-01T01:48:39.670Z,18.41
2023-08-01T01:51:27.713Z,18.40
2023-08-01T01:54:14.456Z,18.41
2023-08-01T01:57:00.881Z,18.42
2023-08-01T01:59:47.400Z,18.45
2023-08-01T02:02:34.319Z,18.46
2023-08-01T02:05:21.349Z,18.46
2023-08-01T02:08:08.415Z,18.44
2023-08-01T02:10:56.432Z,18.44
2023-08-01T02:13:43.595Z,18.41
2023-08-01T02:16:30.120Z,18.39
2023-08-01T02:19:16.763Z,18.39
2023-08-01T02:22:03.666Z,18.39
2023-08-01T02:24:50.110Z,18.37
2023-08-01T02:27:36.494Z,18.37
2023-08-01T02:30:23.384Z,18.36
2023-08-01T02:33:10.066Z,18.36
2023-08-01T02:35:56.604Z,18.37
2023-08-01T02:38:43.267Z,18.37
2023-08-01T02:41:29.939Z,18.36
2023-08-01T02:44:16.877Z,18.35
2023-08-01T02:47:03.994Z,18.34
2023-08-01T02:49:50.663Z,18.32
2023-08-01T02:52:37.096Z,18.31
2023-08-01T02:55:23.768Z,18.32
2023-08-01T02:58:10.230Z,18.34
2023-08-01T03:00:57.511Z,18.35
2023-08-01T03:03:44.298Z,18.36
2023-08-01T03:06:32.390Z,18.35
2023-08-01T03:09:19.199Z,18.34
2023-08-01T03:12:06.242Z,18.34
2023-08-01T03:14:52.899Z,18.35
2023-08-01T03:17:39.226Z,18.34
2023-08-01T03:20:26.786Z,18.32
2023-08-01T03:23:14.037Z,18.31
2023-08-01T03:26:00.926Z,18.32
2023-08-01T03:28:47.246Z,18.32
2023-08-01T03:31:33.644Z,18.32
2023-08-01T03:34:20.356Z,18.33
2023-08-01T03:37:06.985Z,18.36
2023-08-01T03:39:53.633Z,18.36
2023-08-01T03:42:41.596Z,18.36
2023-08-01T03:45:28.251Z,18.36
2023-08-01T03:48:15.914Z,18.35
2023-08-01T03:51:04.359Z,18.35
2023-08-01T03:54:03.254Z,18.34
2023-08-01T03:56:54.085Z,18.30
2023-08-01T03:59:40.818Z,18.28
2023-08-01T04:02:27.529Z,18.25
2023-08-01T04:05:14.335Z,18.22
2023-08-01T04:08:00.866Z,18.19
2023-08-01T04:10:47.186Z,18.16
2023-08-01T04:13:33.849Z,18.15
2023-08-01T04:16:20.751Z,18.13
2023-08-01T04:19:07.345Z,18.10
2023-08-01T04:21:53.919Z,18.08
2023-08-01T04:24:40.367Z,18.03
2023-08-01T04:27:26.756Z,18.01
2023-08-01T04:30:13.585Z,17.97
2023-08-01T04:33:00.473Z,17.97
2023-08-01T04:35:49.575Z,17.96
2023-08-01T04:38:36.550Z,17.92
2023-08-01T04:41:23.350Z,17.87
2023-08-01T04:44:09.908Z,17.84
2023-08-01T04:46:56.436Z,17.84
2023-08-01T04:49:43.126Z,17.86
2023-08-01T04:52:29.744Z,17.86
2023-08-01T04:55:16.521Z,17.85
2023-08-01T04:58:03.403Z,17.85
2023-08-01T05:00:49.964Z,17.86
2023-08-01T05:03:36.543Z,17.86
2023-08-01T05:06:23.298Z,17.88
2023-08-01T05:09:09.688Z,17.85
2023-08-01T05:11:56.161Z,17.90
2023-08-01T05:14:42.898Z,17.89
2023-08-01T05:17:29.814Z,17.85
2023-08-01T05:20:16.478Z,17.77
2023-08-01T05:23:03.556Z,17.80
2023-08-01T05:25:49.788Z,17.81
2023-08-01T05:28:36.322Z,17.86
2023-08-01T05:31:22.917Z,17.88
2023-08-01T05:34:09.275Z,17.92
2023-08-01T05:36:56.210Z,17.96
2023-08-01T05:39:43.128Z,18.00
2023-08-01T05:42:29.915Z,18.00
2023-08-01T05:45:16.432Z,18.01
2023-08-01T05:48:03.499Z,18.04
2023-08-01T05:50:50.014Z,18.02
2023-08-01T05:53:36.706Z,18.03
2023-08-01T05:56:23.374Z,17.99
2023-08-01T05:59:10.482Z,17.97
2023-08-01T06:01:57.237Z,17.97
2023-08-01T06:04:43.965Z,17.93
2023-08-01T06:07:30.662Z,17.90
2023-08-01T06:10:17.116Z,17.82
2023-08-01T06:13:03.794Z,17.75
2023-08-01T06:15:50.590Z,17.69
2023-08-01T06:18:37.067Z,17.68
2023-08-01T06:21:24.021Z,17.77
2023-08-01T06:24:11.530Z,17.96
2023-08-01T06:26:58.041Z,18.09
2023-08-01T06:29:44.634Z,18.12
2023-08-01T06:32:31.416Z,18.23
2023-08-01T06:35:17.790Z,18.34
2023-08-01T06:38:04.602Z,18.34
2023-08-01T06:40:51.142Z,18.33
2023-08-01T06:43:40.329Z,18.27
2023-08-01T06:46:26.982Z,18.44
2023-08-01T06:49:13.528Z,18.54
2023-08-01T06:52:00.358Z,18.55
2023-08-01T06:54:46.833Z,18.55
2023-08-01T06:57:33.230Z,18.59
2023-08-01T07:00:19.808Z,18.65
2023-08-01T07:03:06.548Z,18.67
2023-08-01T07:05:53.085Z,18.72
2023-08-01T07:08:40.959Z,18.81
2023-08-01T07:11:27.610Z,18.95
2023-08-01T07:14:13.963Z,19.05
2023-08-01T07:17:00.594Z,19.23
2023-08-01T07:19:47.195Z,19.37
2023-08-01T07:22:33.582Z,19.54
2023-08-01T07:25:20.552Z,19.71
2023-08-01T07:28:07.248Z,19.86
2023-08-01T07:31:06.381Z,19.94
2023-08-01T07:33:52.889Z,19.93
2023-08-01T07:36:39.480Z,19.81
2023-08-01T07:39:26.317Z,19.64
2023-08-01T07:42:12.732Z,19.40
2023-08-01T07:44:59.188Z,19.16
2023-08-01T07:47:46.168Z,19.05
2023-08-01T07:50:32.708Z,18.97
2023-08-01T07:53:19.885Z,18.95
2023-08-01T07:56:08.815Z,18.93
2023-08-01T07:58:55.290Z,18.93
2023-08-01T08:01:44.242Z,18.98
2023-08-01T08:04:30.914Z,19.16
2023-08-01T08:07:18.814Z,19.40
2023-08-01T08:10:08.329Z,19.51
2023-08-01T08:12:57.560Z,19.41
2023-08-01T08:15:44.677Z,19.36
2023-08-01T08:18:33.488Z,19.30
2023-08-01T08:21:20.646Z,19.21
2023-08-01T08:24:07.888Z,19.23
2023-08-01T08:26:54.913Z,19.28
2023-08-01T08:29:45.200Z,19.43
2023-08-01T08:32:36.370Z,19.69
2023-08-01T08:35:37.264Z,19.88
2023-08-01T08:38:27.965Z,20.00
2023-08-01T08:41:22.776Z,20.06
2023-08-01T08:44:12.082Z,20.00
2023-08-01T08:47:07.801Z,19.91
2023-08-01T08:49:58.248Z,19.86
2023-08-01T08:52:46.313Z,19.88
2023-08-01T08:55:32.962Z,20.02
2023-08-01T08:58:20.981Z,20.39
2023-08-01T09:01:10.072Z,21.06
2023-08-01T09:03:58.035Z,21.77
2023-08-01T09:06:49.517Z,22.38
2023-08-01T09:09:38.764Z,22.87
2023-08-01T09:12:26.149Z,23.27
2023-08-01T09:15:13.860Z,23.48
2023-08-01T09:18:01.961Z,23.50
2023-08-01T09:20:49.997Z,23.39
2023-08-01T09:23:36.566Z,22.87
2023-08-01T09:26:23.215Z,22.62
2023-08-01T09:29:10.657Z,22.41
2023-08-01T09:31:57.756Z,22.10
2023-08-01T09:34:44.613Z,21.88
2023-08-01T09:37:44.578Z,21.66
2023-08-01T09:40:41.172Z,21.44
2023-08-01T09:43:35.570Z,21.35
2023-08-01T09:46:22.293Z,21.28
2023-08-01T09:49:11.125Z,21.54
2023-08-01T09:51:59.540Z,21.64
2023-08-01T09:54:46.398Z,21.44
2023-08-01T09:57:33.282Z,21.12
2023-08-01T10:00:20.030Z,20.83
2023-08-01T10:03:06.865Z,20.47
2023-08-01T10:05:55.765Z,20.21
2023-08-01T10:08:42.821Z,20.03
2023-08-01T10:11:35.064Z,19.98
2023-08-01T10:14:22.071Z,20.14
2023-08-01T10:17:09.496Z,20.10
2023-08-01T10:19:57.329Z,20.10
2023-08-01T10:22:45.928Z,20.07
2023-08-01T10:25:35.109Z,20.13
2023-08-01T10:28:36.027Z,20.27
2023-08-01T10:31:23.768Z,20.38
2023-08-01T10:34:16.178Z,20.62
2023-08-01T10:37:03.687Z,21.01
2023-08-01T10:40:01.161Z,21.51
2023-08-01T10:42:48.268Z,22.04
2023-08-01T10:45:34.963Z,22.38
2023-08-01T10:48:21.700Z,22.38
2023-08-01T10:51:08.565Z,22.16
2023-08-01T10:53:55.006Z,21.91
2023-08-01T10:56:46.610Z,21.51
2023-08-01T10:59:33.951Z,21.13
2023-08-01T11:02:25.135Z,20.99
2023-08-01T11:05:12.758Z,20.98
2023-08-01T11:08:04.017Z,21.06
2023-08-01T11:10:51.291Z,20.97
2023-08-01T11:13:37.935Z,20.88
2023-08-01T11:16:26.622Z,20.75
2023-08-01T11:19:31.077Z,20.59
2023-08-01T11:22:17.876Z,20.53
2023-08-01T11:25:05.289Z,20.72
2023-08-01T11:27:51.667Z,20.79
2023-08-01T11:30:38.572Z,20.80
2023-08-01T11:33:25.721Z,20.69
2023-08-01T11:36:12.554Z,20.40
2023-08-01T11:39:00.764Z,20.13
2023-08-01T11:41:47.446Z,19.79
2023-08-01T11:44:34.199Z,19.61
2023-08-01T11:47:21.092Z,19.75
2023-08-01T11:50:08.869Z,20.11
2023-08-01T11:52:55.336Z,20.49
2023-08-01T11:55:42.348Z,20.70
2023-08-01T11:58:34.006Z,20.75
2023-08-01T12:01:21.077Z,20.92
2023-08-01T12:04:08.038Z,21.01
2023-08-01T12:06:54.686Z,21.16
2023-08-01T12:09:41.947Z,21.48
2023-08-01T12:12:30.419Z,22.11
2023-08-01T12:15:17.080Z,22.42
2023-08-01T12:18:03.604Z,22.26
2023-08-01T12:20:50.814Z,22.26
2023-08-01T12:23:37.581Z,22.45
2023-08-01T12:26:24.874Z,22.31
2023-08-01T12:29:11.932Z,21.96
2023-08-01T12:31:58.426Z,21.61
2023-08-01T12:34:45.199Z,21.25
2023-08-01T12:37:31.708Z,20.87
2023-08-01T12:40:18.490Z,20.53
2023-08-01T12:43:06.613Z,20.33
2023-08-01T12:45:54.219Z,20.30
2023-08-01T12:48:42.900Z,20.23
2023-08-01T12:51:29.505Z,20.11
2023-08-01T12:54:16.172Z,20.13
2023-08-01T12:57:03.708Z,20.33
2023-08-01T12:59:50.134Z,20.52
2023-08-01T13:02:38.590Z,20.64
2023-08-01T13:05:25.412Z,20.66
2023-08-01T13:08:12.350Z,20.61
2023-08-01T13:11:01.439Z,20.57
2023-08-01T13:13:48.271Z,20.74
2023-08-01T13:16:34.957Z,20.88
2023-08-01T13:19:21.598Z,20.90
2023-08-01T13:22:07.915Z,21.00
2023-08-01T13:24:54.239Z,21.10
2023-08-01T13:27:40.646Z,21.10
2023-08-01T13:30:26.929Z,21.02
2023-08-01T13:33:13.381Z,20.91
2023-08-01T13:36:00.554Z,20.83
2023-08-01T13:38:47.547Z,20.82
2023-08-01T13:41:34.748Z,20.89
2023-08-01T13:44:21.369Z,20.99
2023-08-01T13:47:08.308Z,21.12
2023-08-01T13:49:54.960Z,21.23
2023-08-01T13:52:42.880Z,21.26
2023-08-01T13:55:33.039Z,21.15
2023-08-01T13:58:20.429Z,21.03
2023-08-01T14:01:14.582Z,20.88
2023-08-01T14:04:01.578Z,20.80
2023-08-01T14:06:54.746Z,20.80
2023-08-01T14:09:41.904Z,20.75
2023-08-01T14:12:28.753Z,20.54
2023-08-01T14:15:15.433Z,20.46
2023-08-01T14:18:02.549Z,20.12
2023-08-01T14:20:50.777Z,19.69
2023-08-01T14:23:42.714Z,19.51
2023-08-01T14:26:30.087Z,19.56
2023-08-01T14:29:17.387Z,19.61
2023-08-01T14:32:03.953Z,19.62
2023-08-01T14:34:53.102Z,19.59
2023-08-01T14:37:40.032Z,19.57
2023-08-01T14:40:28.085Z,19.62
2023-08-01T14:43:15.739Z,19.68
2023-08-01T14:46:02.764Z,19.70
2023-08-01T14:48:49.075Z,19.58
2023-08-01T14:51:36.069Z,19.50
2023-08-01T14:54:37.805Z,19.51
2023-08-01T14:57:27.104Z,19.61
2023-08-01T15:00:14.328Z,19.75
2023-08-01T15:03:00.808Z,19.93
2023-08-01T15:05:47.448Z,20.13
2023-08-01T15:08:34.646Z,20.25
2023-08-01T15:11:21.615Z,20.40
2023-08-01T15:14:08.126Z,20.58
2023-08-01T15:16:54.705Z,20.84
2023-08-01T15:19:41.134Z,21.46
2023-08-01T15:22:28.115Z,22.41
2023-08-01T15:25:14.290Z,22.97
2023-08-01T15:28:01.221Z,23.27
2023-08-01T15:30:47.668Z,23.75
2023-08-01T15:33:35.825Z,23.79
2023-08-01T15:36:29.940Z,24.28
2023-08-01T15:39:17.427Z,24.29
2023-08-01T15:42:04.940Z,24.70
2023-08-01T15:44:51.532Z,25.37
2023-08-01T15:47:37.889Z,25.32
2023-08-01T15:50:24.848Z,24.92
2023-08-01T15:53:11.635Z,24.70
2023-08-01T15:56:03.936Z,24.42
2023-08-01T15:58:58.228Z,24.33
2023-08-01T16:01:48.460Z,24.08
2023-08-01T16:04:36.077Z,23.95
2023-08-01T16:07:23.055Z,24.64
2023-08-01T16:10:10.060Z,25.50
2023-08-01T16:13:04.169Z,25.54
2023-08-01T16:15:57.444Z,25.20
2023-08-01T16:18:48.245Z,24.96
2023-08-01T16:21:35.905Z,25.16
2023-08-01T16:24:22.746Z,25.42
2023-08-01T16:27:23.296Z,25.65
2023-08-01T16:30:11.630Z,25.46
2023-08-01T16:33:00.469Z,25.05
2023-08-01T16:35:52.097Z,24.60
2023-08-01T16:38:41.655Z,24.50
2023-08-01T16:41:29.110Z,24.43
2023-08-01T16:44:15.611Z,24.17
2023-08-01T16:47:02.609Z,24.16
2023-08-01T16:49:56.000Z,23.90
2023-08-01T16:52:42.978Z,23.46
2023-08-01T16:55:29.410Z,23.15
2023-08-01T16:58:15.717Z,22.91
2023-08-01T17:01:02.372Z,22.93
2023-08-01T17:03:48.993Z,23.15
2023-08-01T17:06:35.698Z,22.74
2023-08-01T17:09:22.347Z,22.42
2023-08-01T17:12:09.737Z,22.15
2023-08-01T17:14:56.506Z,21.96
2023-08-01T17:17:43.218Z,21.75
2023-08-01T17:20:36.339Z,21.61
2023-08-01T17:23:23.194Z,21.44
2023-08-01T17:26:09.845Z,21.26
2023-08-01T17:28:56.463Z,21.07
2023-08-01T17:31:43.200Z,20.87
2023-08-01T17:34:32.721Z,20.65
2023-08-01T17:37:19.494Z,20.41
2023-08-01T17:40:09.613Z,20.21
2023-08-01T17:42:56.454Z,20.05
2023-08-01T17:45:43.282Z,19.94
2023-08-01T17:48:30.058Z,19.83
2023-08-01T17:51:18.258Z,19.73
2023-08-01T17:54:04.774Z,19.64
2023-08-01T17:56:52.396Z,19.55
2023-08-01T17:59:40.240Z,19.13
2023-08-01T18:02:28.844Z,18.61
2023-08-01T18:05:15.916Z,18.26
2023-08-01T18:08:02.955Z,18.02
2023-08-01T18:10:49.587Z,17.79
2023-08-01T18:13:36.397Z,17.60
2023-08-01T18:16:25.086Z,17.50
2023-08-01T18:19:12.055Z,17.41
2023-08-01T18:21:58.911Z,17.39
2023-08-01T18:24:45.391Z,17.40
2023-08-01T18:27:32.106Z,17.39
2023-08-01T18:30:18.416Z,17.39
2023-08-01T18:33:05.433Z,17.37
2023-08-01T18:35:52.098Z,17.39
2023-08-01T18:38:39.723Z,17.40
2023-08-01T18:41:26.936Z,17.40
2023-08-01T18:44:13.510Z,17.39
2023-08-01T18:47:00.300Z,17.37
2023-08-01T18:49:50.738Z,17.35
2023-08-01T18:52:38.811Z,17.32
2023-08-01T18:55:26.323Z,17.27
2023-08-01T18:58:15.007Z,17.23
2023-08-01T19:01:24.286Z,17.15
2023-08-01T19:04:20.276Z,17.10
2023-08-01T19:07:09.072Z,17.09
2023-08-01T19:09:59.800Z,17.07
2023-08-01T19:12:48.829Z,17.04
2023-08-01T19:15:38.865Z,17.00
2023-08-01T19:18:29.452Z,16.99
2023-08-01T19:21:31.238Z,16.98
2023-08-01T19:24:26.462Z,16.93
2023-08-01T19:27:13.748Z,16.91
2023-08-01T19:30:00.514Z,16.89
2023-08-01T19:32:48.056Z,16.84
2023-08-01T19:35:58.726Z,16.83
2023-08-01T19:38:45.920Z,16.80
2023-08-01T19:41:35.236Z,16.80
2023-08-01T19:44:25.012Z,16.79
2023-08-01T19:47:19.312Z,16.76
2023-08-01T19:50:09.801Z,16.77
2023-08-01T19:52:59.501Z,16.76
2023-08-01T19:55:47.529Z,16.75
2023-08-01T19:58:34.317Z,16.75
2023-08-01T20:01:21.658Z,16.71
2023-08-01T20:04:08.462Z,16.68
2023-08-01T20:06:56.152Z,16.66
2023-08-01T20:09:43.055Z,16.66
2023-08-01T20:12:29.577Z,16.66
2023-08-01T20:15:16.819Z,16.66
2023-08-01T20:18:03.460Z,16.66
2023-08-01T20:20:50.343Z,16.64
2023-08-01T20:23:37.175Z,16.58
2023-08-01T20:26:24.075Z,16.58
2023-08-01T20:29:10.929Z,16.56
2023-08-01T20:31:57.642Z,16.53
2023-08-01T20:34:44.975Z,16.51
2023-08-01T20:37:32.939Z,16.50
2023-08-01T20:40:21.102Z,16.49
2023-08-01T20:43:10.424Z,16.48
2023-08-01T20:45:57.661Z,16.46
2023-08-01T20:48:44.003Z,16.42
2023-08-01T20:51:30.490Z,16.41
2023-08-01T20:54:17.357Z,16.38
2023-08-01T20:57:06.182Z,16.37
2023-08-01T20:59:52.387Z,16.35
2023-08-01T21:02:39.826Z,16.32
2023-08-01T21:05:26.844Z,16.28
2023-08-01T21:08:13.030Z,16.22
2023-08-01T21:10:59.449Z,16.19
2023-08-01T21:13:47.418Z,16.15
2023-08-01T21:16:33.980Z,16.13
2023-08-01T21:19:20.737Z,16.11
2023-08-01T21:22:07.457Z,16.08
2023-08-01T21:24:53.879Z,16.05
2023-08-01T21:27:40.828Z,16.00
2023-08-01T21:30:27.520Z,16.01
2023-08-01T21:33:14.111Z,15.97
2023-08-01T21:36:01.879Z,15.90
2023-08-01T21:38:48.914Z,15.87
2023-08-01T21:41:35.347Z,15.83
2023-08-01T21:44:21.950Z,15.79
2023-08-01T21:47:10.863Z,15.77
2023-08-01T21:49:57.547Z,15.72
2023-08-01T21:52:43.868Z,15.70
2023-08-01T21:55:30.169Z,15.69
2023-08-01T21:58:17.100Z,15.66
2023-08-01T22:01:03.934Z,15.59
2023-08-01T22:03:50.638Z,15.55
2023-08-01T22:06:37.273Z,15.49
2023-08-01T22:09:23.861Z,15.45
2023-08-01T22:12:10.436Z,15.41
2023-08-01T22:14:57.262Z,15.39
2023-08-01T22:17:43.833Z,15.37
2023-08-01T22:20:30.886Z,15.34
2023-08-01T22:23:18.339Z,15.29
2023-08-01T22:26:04.703Z,15.23
2023-08-01T22:28:51.322Z,15.23
2023-08-01T22:31:38.015Z,15.19
2023-08-01T22:34:25.887Z,15.15
2023-08-01T22:37:13.055Z,15.09
2023-08-01T22:40:00.801Z,15.04
2023-08-01T22:42:47.815Z,14.99
2023-08-01T22:45:34.709Z,14.91
2023-08-01T22:48:21.430Z,14.86
2023-08-01T22:51:17.744Z,14.82
2023-08-01T22:54:04.266Z,14.78
2023-08-01T22:56:50.669Z,14.76
2023-08-01T22:59:36.903Z,14.69
2023-08-01T23:02:23.498Z,14.66
2023-08-01T23:05:11.794Z,14.60
2023-08-01T23:07:58.447Z,14.60
2023-08-01T23:10:45.137Z,14.58
2023-08-01T23:13:31.887Z,14.57
2023-08-01T23:16:18.586Z,14.57
2023-08-01T23:19:05.460Z,14.51
2023-08-01T23:21:51.768Z,14.52
2023-08-01T23:24:38.023Z,14.48
2023-08-01T23:27:24.635Z,14.46
2023-08-01T23:30:11.633Z,14.42
2023-08-01T23:32:58.596Z,14.39
2023-08-01T23:35:45.436Z,14.32
2023-08-01T23:38:33.003Z,14.30
2023-08-01T23:41:19.599Z,14.26
2023-08-01T23:44:06.241Z,14.21
2023-08-01T23:46:53.050Z,14.17
2023-08-01T23:49:39.715Z,14.13
2023-08-01T23:52:26.425Z,14.10
2023-08-01T23:55:12.911Z,14.07
2023-08-01T23:57:59.322Z,14.05
